Time;durP1;ratioP1;P1;durP2;ratioP2;P2;SDS_P1;SDS_P2;PMS_P1;PMS_P2;Temp;Humidity;BMP_temperature;BMP_pressure;BME280_temperature;BME280_humidity;BME280_pressure;Samples;Min_cycle;Max_cycle;Signal;HPM_P1;HPM_P2
2022/09/20 00:01:05;;;;;;;;;;;;;;;11.42;100.00;102212.59;5020107;28;19959;-42
2022/09/20 00:03:30;;;;;;;;;;;;;;;11.37;100.00;102205.00;5020783;28;20012;-44
2022/09/20 00:05:59;;;;;;;;;;;;;;;11.35;100.00;102203.41;5018678;28;20015;-42
2022/09/20 00:08:24;;;;;;;;;;;;;;;11.32;100.00;102196.53;5021925;28;19925;-44
2022/09/20 00:10:49;;;;;;;;;;;;;;;11.31;100.00;102197.50;5016574;28;20263;-47
2022/09/20 00:13:14;;;;;;;;;;;;;;;11.30;100.00;102203.84;5021080;28;19917;-41
2022/09/20 00:15:44;;;;;;;;;;;;;;;11.32;100.00;102209.03;5008551;28;19951;-40
2022/09/20 00:18:10;;;;;;;;;;;;;;;11.33;100.00;102198.19;5001799;28;20516;-40
2022/09/20 00:20:35;;;;;;;;;;;;;;;11.35;100.00;102203.41;5000491;28;20032;-41
2022/09/20 00:23:00;;;;;;;;;;;;;;;11.32;100.00;102198.31;5002891;28;19951;-41
2022/09/20 00:25:26;;;;;;;;;;;;;;;11.27;100.00;102197.88;5019454;28;19939;-41
2022/09/20 00:27:51;;;;;;;;;;;;;;;11.26;100.00;102206.91;5021117;28;20767;-40
2022/09/20 00:30:16;;;;;;;;;;;;;;;11.23;100.00;102209.81;5007904;28;19918;-43
2022/09/20 00:32:41;;;;;;;;;;;;;;;11.19;100.00;102212.75;5019444;28;19917;-42
2022/09/20 00:35:07;;;;;;;;;;;;;;;11.16;100.00;102215.69;5019011;28;20367;-42
2022/09/20 00:37:39;;;;;;;;;;;;;;;11.13;100.00;102217.78;5021255;28;19964;-40
2022/09/20 00:40:05;;;;;;;;;;;;;;;11.08;100.00;102207.47;5018905;28;19924;-40
2022/09/20 00:42:30;;;;;;;;;;;;;;;11.02;100.00;102210.69;5021764;28;19971;-42
2022/09/20 00:44:59;;;;;;;;;;;;;;;10.97;100.00;102216.41;5020647;28;20089;-40
2022/09/20 00:47:43;;;;;;;;;;;;;;;10.93;100.00;102217.66;5021434;28;20432;-38
2022/09/20 00:50:11;;;;;;;;;;;;;;;10.89;100.00;102202.00;5018406;28;19913;-39
2022/09/20 00:52:37;;;;;;;;;;;;;;;10.85;100.00;102213.94;5021532;28;20239;-40
2022/09/20 00:55:05;;;;;;;;;;;;;;;10.80;100.00;102214.31;5018838;28;19917;-39
2022/09/20 00:57:34;;;;;;;;;;;;;;;10.77;100.00;102222.59;5021574;28;20341;-40
2022/09/20 01:00:00;;;;;;;;;;;;;;;10.75;100.00;102220.06;5019709;28;19952;-39
2022/09/20 01:02:29;;;;;;;;;;;;;;;10.77;100.00;102220.75;5020930;28;20360;-40
2022/09/20 01:04:56;;;;;;;;;;;;;;;10.82;100.00;102218.56;5018275;28;20307;-40
2022/09/20 01:07:22;;;;;;;;;;;;;;;10.86;100.00;102216.47;5020502;28;20304;-39
2022/09/20 01:09:48;;;;;;;;;;;;;;;10.89;100.00;102221.56;5020233;28;20396;-40
2022/09/20 01:12:15;;;;;;;;;;;;;;;10.92;100.00;102215.97;5020267;28;19917;-40
2022/09/20 01:14:42;;;;;;;;;;;;;;;10.97;100.00;102210.22;5020754;28;20355;-40
2022/09/20 01:17:07;;;;;;;;;;;;;;;11.04;100.00;102216.75;5020407;28;20400;-42
2022/09/20 01:19:48;;;;;;;;;;;;;;;11.07;100.00;102213.81;5017182;28;19973;-39
2022/09/20 01:22:21;;;;;;;;;;;;;;;11.09;100.00;102209.19;5018473;28;19917;-39
2022/09/20 01:24:50;;;;;;;;;;;;;;;11.07;100.00;102215.66;5019372;28;19913;-39
2022/09/20 01:27:34;;;;;;;;;;;;;;;11.03;100.00;102215.03;5014102;28;20052;-40
2022/09/20 01:30:12;;;;;;;;;;;;;;;11.01;100.00;102217.88;5007909;28;19974;-40
2022/09/20 01:32:43;;;;;;;;;;;;;;;11.03;100.00;102212.38;5020670;28;20317;-41
2022/09/20 01:35:10;;;;;;;;;;;;;;;11.06;100.00;102208.59;5005208;28;19924;-39
2022/09/20 01:37:45;;;;;;;;;;;;;;;11.08;100.00;102211.97;5034862;28;20015;-39
2022/09/20 01:40:13;;;;;;;;;;;;;;;11.08;100.00;102212.81;5019012;28;19909;-39
2022/09/20 01:42:45;;;;;;;;;;;;;;;11.06;100.00;102211.28;5020508;28;19921;-39
2022/09/20 01:45:21;;;;;;;;;;;;;;;11.05;100.00;102212.25;5019448;28;19921;-39
2022/09/20 01:48:04;;;;;;;;;;;;;;;11.07;100.00;102224.50;5020266;28;19993;-41
2022/09/20 01:50:51;;;;;;;;;;;;;;;11.06;100.00;102214.78;5005942;28;20233;-39
2022/09/20 01:53:37;;;;;;;;;;;;;;;11.08;100.00;102214.66;5018908;28;20283;-39
2022/09/20 01:56:15;;;;;;;;;;;;;;;11.09;100.00;102211.84;5018638;28;19913;-40
2022/09/20 01:58:52;;;;;;;;;;;;;;;11.11;100.00;102209.88;5020062;28;20016;-39
2022/09/20 02:01:27;;;;;;;;;;;;;;;11.13;100.00;102221.31;5019650;28;19914;-40
2022/09/20 02:03:55;;;;;;;;;;;;;;;11.09;100.00;102217.19;5018329;28;19921;-41
2022/09/20 02:06:28;;;;;;;;;;;;;;;11.08;100.00;102220.00;5018333;28;19932;-40
2022/09/20 02:08:59;;;;;;;;;;;;;;;11.04;100.00;102210.56;5017582;28;20584;-40
2022/09/20 02:11:43;;;;;;;;;;;;;;;11.05;100.00;102220.25;5018687;28;19923;-40
2022/09/20 02:14:14;;;;;;;;;;;;;;;11.03;100.00;102209.69;5019344;28;19925;-39
2022/09/20 02:16:42;;;;;;;;;;;;;;;11.02;100.00;102210.69;5016829;28;19917;-39
2022/09/20 02:19:26;;;;;;;;;;;;;;;11.01;100.00;102209.84;5017701;28;19924;-40
2022/09/20 02:21:57;;;;;;;;;;;;;;;11.00;100.00;102212.66;5018891;28;20287;-39
2022/09/20 02:24:37;;;;;;;;;;;;;;;10.99;100.00;102211.78;5018882;28;19913;-40
2022/09/20 02:27:18;;;;;;;;;;;;;;;11.00;100.00;102209.97;5018624;28;20305;-39
2022/09/20 02:30:02;;;;;;;;;;;;;;;10.99;100.00;102209.09;5007681;28;20360;-40
2022/09/20 02:32:36;;;;;;;;;;;;;;;11.01;100.00;102217.00;5019802;28;19960;-39
2022/09/20 02:35:20;;;;;;;;;;;;;;;11.00;100.00;102210.81;5018271;28;19928;-40
2022/09/20 02:37:51;;;;;;;;;;;;;;;11.00;100.00;102205.47;5019706;28;19924;-39
2022/09/20 02:40:31;;;;;;;;;;;;;;;11.02;100.00;102205.34;5018436;28;19913;-39
2022/09/20 02:43:07;;;;;;;;;;;;;;;11.04;100.00;102202.53;5034355;28;19917;-38
2022/09/20 02:45:38;;;;;;;;;;;;;;;10.96;100.00;102195.16;5019187;28;19917;-38
2022/09/20 02:48:04;;;;;;;;;;;;;;;11.04;100.00;102207.88;5018837;28;20372;-40
2022/09/20 02:50:48;;;;;;;;;;;;;;;11.01;100.00;102208.97;5017971;28;20206;-40
2022/09/20 02:53:13;;;;;;;;;;;;;;;10.99;100.00;102200.25;5018463;28;19960;-40
2022/09/20 02:55:48;;;;;;;;;;;;;;;10.99;100.00;102200.25;5018618;28;19991;-40
2022/09/20 02:58:22;;;;;;;;;;;;;;;11.01;100.00;102201.81;5018923;28;20707;-39
2022/09/20 03:00:53;;;;;;;;;;;;;;;11.02;100.00;102200.84;5018248;28;19917;-38
2022/09/20 03:03:28;;;;;;;;;;;;;;;11.03;100.00;102196.31;5018893;28;19921;-41
2022/09/20 03:05:53;;;;;;;;;;;;;;;11.05;100.00;102205.09;5015968;28;19943;-40
2022/09/20 03:08:34;;;;;;;;;;;;;;;11.07;100.00;102203.13;5018932;28;19921;-39
2022/09/20 03:11:08;;;;;;;;;;;;;;;11.09;100.00;102201.16;5005226;28;19929;-39
2022/09/20 03:13:36;;;;;;;;;;;;;;;11.13;100.00;102193.72;5018844;28;19913;-39
2022/09/20 03:16:13;;;;;;;;;;;;;;;11.15;100.00;102197.97;5021785;28;20352;-41
2022/09/20 03:18:47;;;;;;;;;;;;;;;11.17;100.00;102203.19;5023062;28;19936;-39
2022/09/20 03:21:39;;;;;;;;;;;;;;;11.17;100.00;102200.53;5020899;28;20295;-39
2022/09/20 03:24:07;;;;;;;;;;;;;;;11.13;100.00;102199.94;5022258;28;20012;-40
2022/09/20 03:26:51;;;;;;;;;;;;;;;11.13;100.00;102205.28;5022405;28;20374;-39
2022/09/20 03:29:34;;;;;;;;;;;;;;;11.13;100.00;102207.97;5022294;28;19921;-39
2022/09/20 03:32:09;;;;;;;;;;;;;;;11.12;100.00;102211.59;5022426;28;19919;-38
2022/09/20 03:34:35;;;;;;;;;;;;;;;11.12;100.00;102213.44;5020498;28;20324;-38
2022/09/20 03:37:06;;;;;;;;;;;;;;;11.11;100.00;102209.88;5022342;28;19913;-41
2022/09/20 03:39:50;;;;;;;;;;;;;;;11.12;100.00;102205.41;5021552;28;19953;-40
2022/09/20 03:42:18;;;;;;;;;;;;;;;11.10;100.00;102216.25;5022842;28;20410;-41
2022/09/20 03:44:58;;;;;;;;;;;;;;;11.11;100.00;102214.41;5021587;28;19959;-42
2022/09/20 03:47:41;;;;;;;;;;;;;;;11.10;100.00;102205.53;5022581;28;19944;-40
2022/09/20 03:50:24;;;;;;;;;;;;;;;11.09;100.00;102201.16;5020635;28;19917;-41
2022/09/20 03:53:04;;;;;;;;;;;;;;;11.11;100.00;102203.69;5021913;28;20603;-40
2022/09/20 03:55:48;;;;;;;;;;;;;;;11.11;100.00;102204.53;5007507;28;19913;-42
2022/09/20 03:58:26;;;;;;;;;;;;;;;11.07;100.00;102203.13;5015324;28;19937;-40
2022/09/20 04:01:12;;;;;;;;;;;;;;;11.07;100.00;102202.28;5021499;28;20323;-40
2022/09/20 04:03:46;;;;;;;;;;;;;;;11.07;100.00;102205.78;5022106;28;19925;-40
2022/09/20 04:06:20;;;;;;;;;;;;;;;11.08;100.00;102199.44;5019802;28;20449;-41
2022/09/20 04:08:48;;;;;;;;;;;;;;;11.08;100.00;102204.81;5021973;28;19917;-38
2022/09/20 04:11:25;;;;;;;;;;;;;;;11.07;100.00;102197.78;5020483;28;20016;-40
2022/09/20 04:13:56;;;;;;;;;;;;;;;11.07;100.00;102200.44;5021331;28;19917;-40
2022/09/20 04:16:22;;;;;;;;;;;;;;;11.07;100.00;102200.44;5021705;28;20122;-39
2022/09/20 04:18:50;;;;;;;;;;;;;;;11.07;100.00;102210.31;5021846;28;19921;-41
2022/09/20 04:21:22;;;;;;;;;;;;;;;11.07;100.00;102203.13;5020507;28;19917;-40
2022/09/20 04:23:53;;;;;;;;;;;;;;;11.08;100.00;102196.78;5021754;28;19936;-40
2022/09/20 04:26:29;;;;;;;;;;;;;;;11.10;100.00;102186.81;5019314;28;19913;-39
2022/09/20 04:29:15;;;;;;;;;;;;;;;11.12;100.00;102194.72;5020968;28;19921;-41
2022/09/20 04:31:45;;;;;;;;;;;;;;;11.15;100.00;102203.31;5021541;28;19921;-40
2022/09/20 04:34:18;;;;;;;;;;;;;;;11.15;100.00;102203.31;5019351;28;19924;-39
2022/09/20 04:37:01;;;;;;;;;;;;;;;11.14;100.00;102209.63;5021133;28;20301;-39
2022/09/20 04:39:41;;;;;;;;;;;;;;;11.14;100.00;102206.97;5020888;28;20360;-40
2022/09/20 04:42:17;;;;;;;;;;;;;;;11.11;100.00;102204.53;5008813;28;19917;-39
2022/09/20 04:44:55;;;;;;;;;;;;;;;11.13;100.00;102207.09;5017419;28;19918;-39
2022/09/20 04:47:30;;;;;;;;;;;;;;;11.10;100.00;102205.53;5021256;28;19960;-40
2022/09/20 04:50:13;;;;;;;;;;;;;;;11.08;100.00;102214.66;5018697;28;19917;-39
2022/09/20 04:52:59;;;;;;;;;;;;;;;11.04;100.00;102215.91;5021655;28;19921;-39
2022/09/20 04:55:27;;;;;;;;;;;;;;;11.00;100.00;102215.31;5019893;28;20035;-39
2022/09/20 04:57:55;;;;;;;;;;;;;;;10.95;100.00;102217.53;5020165;28;20013;-40
2022/09/20 05:00:22;;;;;;;;;;;;;;;10.90;100.00;102214.41;5020782;28;19913;-40
2022/09/20 05:02:57;;;;;;;;;;;;;;;10.83;100.00;102214.91;5021478;28;20432;-40
2022/09/20 05:05:31;;;;;;;;;;;;;;;10.77;100.00;102218.09;5034357;28;19913;-41
2022/09/20 05:07:59;;;;;;;;;;;;;;;10.71;100.00;102225.78;5020068;28;19928;-40
2022/09/20 05:10:34;;;;;;;;;;;;;;;10.66;100.00;102230.66;5019782;28;19920;-40
2022/09/20 05:13:11;;;;;;;;;;;;;;;10.63;100.00;102235.28;5021107;28;19924;-40
2022/09/20 05:16:02;;;;;;;;;;;;;;;10.60;100.00;102226.69;5020420;28;19925;-40
2022/09/20 05:18:41;;;;;;;;;;;;;;;10.56;100.00;102223.41;5013784;28;19917;-40
2022/09/20 05:21:25;;;;;;;;;;;;;;;10.56;100.00;102227.91;4999324;28;20119;-40
2022/09/20 05:24:09;;;;;;;;;;;;;;;10.53;100.00;102230.84;5000023;28;20259;-40
2022/09/20 05:27:04;;;;;;;;;;;;;;;10.52;100.00;102229.13;5000289;28;19913;-38
2022/09/20 05:29:41;;;;;;;;;;;;;;;10.52;100.00;102246.03;5000602;28;19929;-40
2022/09/20 05:32:23;;;;;;;;;;;;;;;10.56;100.00;102241.28;4998448;28;20012;-39
2022/09/20 05:35:01;;;;;;;;;;;;;;;10.60;100.00;102242.69;5015725;28;19936;-39
2022/09/20 05:37:38;;;;;;;;;;;;;;;10.65;100.00;102248.50;5017055;28;19917;-39
2022/09/20 05:40:22;;;;;;;;;;;;;;;10.69;100.00;102247.28;5013339;28;20309;-39
2022/09/20 05:42:47;;;;;;;;;;;;;;;10.71;100.00;102255.16;5018685;28;19953;-38
2022/09/20 05:45:31;;;;;;;;;;;;;;;10.74;100.00;102254.91;4998663;28;19967;-40
2022/09/20 05:48:02;;;;;;;;;;;;;;;10.77;100.00;102255.50;5000321;28;19936;-39
2022/09/20 05:50:36;;;;;;;;;;;;;;;10.81;100.00;102256.09;5002263;28;20185;-43
2022/09/20 05:53:20;;;;;;;;;;;;;;;10.87;100.00;102268.13;5000394;28;19914;-42
2022/09/20 05:55:45;;;;;;;;;;;;;;;10.91;100.00;102265.06;5000809;28;19920;-44
2022/09/20 05:58:11;;;;;;;;;;;;;;;10.93;100.00;102262.25;5014833;28;19921;-42
2022/09/20 06:00:49;;;;;;;;;;;;;;;10.94;100.00;102263.94;4999909;28;19993;-41
2022/09/20 06:03:17;;;;;;;;;;;;;;;10.96;100.00;102265.53;4999435;28;20293;-41
2022/09/20 06:05:48;;;;;;;;;;;;;;;10.97;100.00;102267.22;5003576;28;20047;-41
2022/09/20 06:08:13;;;;;;;;;;;;;;;11.00;100.00;102266.13;5006191;28;20392;-40
2022/09/20 06:10:49;;;;;;;;;;;;;;;11.02;100.00;102267.66;4998788;28;20003;-43
2022/09/20 06:13:18;;;;;;;;;;;;;;;11.06;100.00;102278.94;5009268;28;19918;-41
2022/09/20 06:15:52;;;;;;;;;;;;;;;11.07;100.00;102274.47;5000132;28;20000;-40
2022/09/20 06:18:30;;;;;;;;;;;;;;;11.09;100.00;102275.19;4999841;28;19959;-42
2022/09/20 06:21:12;;;;;;;;;;;;;;;11.09;100.00;102278.69;4997608;28;20004;-40
2022/09/20 06:23:37;;;;;;;;;;;;;;;11.13;100.00;102285.50;4999729;28;19966;-40
2022/09/20 06:26:13;;;;;;;;;;;;;;;11.16;100.00;102284.38;5008206;28;19936;-39
2022/09/20 06:28:40;;;;;;;;;;;;;;;11.17;100.00;102280.75;4999230;28;20380;-39
2022/09/20 06:31:07;;;;;;;;;;;;;;;11.21;100.00;102279.50;5000289;28;19925;-39
2022/09/20 06:33:39;;;;;;;;;;;;;;;11.26;100.00;102279.09;5019697;28;19986;-39
2022/09/20 06:41:43;;;;;;;;;;;;;;;11.42;100.00;102282.16;5015692;28;19917;-40
2022/09/20 06:44:09;;;;;;;;;;;;;;;11.48;100.00;102284.31;5018590;28;20003;-40
2022/09/20 06:46:35;;;;;;;;;;;;;;;11.51;100.00;102276.03;5007548;28;20007;-40
2022/09/20 06:49:00;;;;;;;;;;;;;;;11.52;100.00;102272.38;5015615;28;19972;-40
2022/09/20 06:51:27;;;;;;;;;;;;;;;11.55;100.00;102277.44;5014783;28;19960;-40
2022/09/20 06:53:53;;;;;;;;;;;;;;;11.54;100.00;102286.47;5015741;28;19925;-40
2022/09/20 06:56:21;;;;;;;;;;;;;;;11.54;100.00;102288.28;5015450;28;20338;-40
2022/09/20 06:58:47;;;;;;;;;;;;;;;11.55;100.00;102287.31;5006968;28;19917;-42
2022/09/20 07:01:12;;;;;;;;;;;;;;;11.58;100.00;102281.69;5016716;28;19920;-40
2022/09/20 07:03:38;;;;;;;;;;;;;;;11.68;100.00;102284.44;5013689;28;20339;-40
2022/09/20 07:06:03;;;;;;;;;;;;;;;11.79;100.00;102280.81;5007798;28;19917;-40
2022/09/20 07:08:28;;;;;;;;;;;;;;;11.87;100.00;102284.50;4999657;28;20400;-39
2022/09/20 07:10:53;;;;;;;;;;;;;;;11.94;100.00;102285.69;4997718;28;19924;-40
2022/09/20 07:13:19;;;;;;;;;;;;;;;12.05;100.00;102294.59;4998622;28;19967;-39
2022/09/20 07:15:45;;;;;;;;;;;;;;;12.18;100.00;102281.00;4998708;28;19914;-39
2022/09/20 07:18:10;;;;;;;;;;;;;;;12.32;100.00;102294.88;4998805;28;20379;-39
2022/09/20 07:20:35;;;;;;;;;;;;;;;12.48;100.00;102294.31;4997092;28;19914;-42
2022/09/20 07:23:01;;;;;;;;;;;;;;;12.59;100.00;102296.06;4999215;28;20284;-40
2022/09/20 07:25:26;;;;;;;;;;;;;;;12.75;100.00;102297.34;4997172;28;20372;-39
2022/09/20 07:27:51;;;;;;;;;;;;;;;12.84;100.00;102301.84;4998393;28;20382;-40
2022/09/20 07:30:17;;;;;;;;;;;;;;;12.84;100.00;102308.06;4997519;28;19914;-39
2022/09/20 07:32:43;;;;;;;;;;;;;;;12.86;100.00;102299.88;5013560;28;19913;-40
2022/09/20 07:35:09;;;;;;;;;;;;;;;12.94;100.00;102296.50;5017120;28;19917;-40
2022/09/20 07:37:34;;;;;;;;;;;;;;;13.01;100.00;102305.66;5018532;28;20011;-40
2022/09/20 07:39:59;;;;;;;;;;;;;;;13.16;100.00;102308.78;5017157;28;20072;-39
2022/09/20 07:42:24;;;;;;;;;;;;;;;13.33;100.00;102309.91;5009631;28;19999;-41
2022/09/20 07:44:52;;;;;;;;;;;;;;;13.46;100.00;102314.97;5015944;28;20013;-40
2022/09/20 07:47:18;;;;;;;;;;;;;;;13.51;100.00;102313.56;4999358;28;19914;-39
2022/09/20 07:49:43;;;;;;;;;;;;;;;13.51;100.00;102315.38;4997572;28;20313;-40
2022/09/20 07:52:10;;;;;;;;;;;;;;;13.59;100.00;102323.56;4998563;28;20311;-40
2022/09/20 07:54:35;;;;;;;;;;;;;;;13.71;100.00;102322.41;4997475;28;19913;-41
2022/09/20 07:57:00;;;;;;;;;;;;;;;13.88;100.00;102322.63;5010840;28;19928;-39
2022/09/20 07:59:25;;;;;;;;;;;;;;;13.89;100.00;102330.56;5013253;28;19921;-41
2022/09/20 08:01:50;;;;;;;;;;;;;;;13.99;100.00;102328.69;5011684;28;20370;-42
2022/09/20 08:04:16;;;;;;;;;;;;;;;14.17;100.00;102330.56;5013413;28;19925;-41
2022/09/20 08:06:42;;;;;;;;;;;;;;;14.30;100.00;102327.56;5008105;28;20523;-41
2022/09/20 08:09:08;;;;;;;;;;;;;;;14.42;100.00;102318.28;5000702;28;19921;-42
2022/09/20 08:11:34;;;;;;;;;;;;;;;14.48;100.00;102330.31;5002270;28;19914;-43
2022/09/20 08:14:00;;;;;;;;;;;;;;;14.49;100.00;102321.22;5013494;28;19913;-44
2022/09/20 08:16:26;;;;;;;;;;;;;;;14.52;100.00;102315.56;5002049;28;19917;-45
2022/09/20 08:18:56;;;;;;;;;;;;;;;14.59;100.00;102310.44;5012248;28;19916;-41
2022/09/20 08:21:22;;;;;;;;;;;;;;;14.68;100.00;102322.97;5000912;28;20000;-42
2022/09/20 08:23:48;;;;;;;;;;;;;;;14.78;100.00;102318.38;5001075;28;19917;-44
2022/09/20 08:26:16;;;;;;;;;;;;;;;14.87;100.00;102322.84;5001387;28;19925;-42
2022/09/20 08:28:43;;;;;;;;;;;;;;;14.93;100.00;102316.00;5002190;28;20081;-46
2022/09/20 08:31:10;;;;;;;;;;;;;;;15.04;100.00;102323.00;5002188;28;19992;-43
2022/09/20 08:33:36;;;;;;;;;;;;;;;15.02;100.00;102320.47;5022130;28;19913;-43
2022/09/20 08:36:02;;;;;;;;;;;;;;;15.18;100.00;102329.69;5020293;28;20256;-43
2022/09/20 08:38:28;;;;;;;;;;;;;;;15.30;100.00;102339.19;5021840;28;19917;-44
2022/09/20 08:40:56;;;;;;;;;;;;;;;15.41;100.00;102347.03;5020038;28;20223;-40
2022/09/20 08:43:27;;;;;;;;;;;;;;;15.48;100.00;102339.19;5021547;28;19913;-42
2022/09/20 08:45:52;;;;;;;;;;;;;;;15.62;100.00;102340.47;5020311;28;20032;-43
2022/09/20 08:48:20;;;;;;;;;;;;;;;15.83;100.00;102348.19;5021099;28;20012;-46
2022/09/20 08:50:45;;;;;;;;;;;;;;;15.92;100.00;102344.56;5020123;28;20008;-42
2022/09/20 08:53:13;;;;;;;;;;;;;;;16.10;100.00;102357.94;5021267;28;20008;-41
2022/09/20 08:55:40;;;;;;;;;;;;;;;16.34;96.01;102342.88;5014278;28;19964;-44
2022/09/20 08:58:13;;;;;;;;;;;;;;;16.67;96.72;102351.09;5019694;28;19913;-44
2022/09/20 09:00:39;;;;;;;;;;;;;;;16.99;96.50;102355.75;5007819;28;20578;-43
2022/09/20 09:03:11;;;;;;;;;;;;;;;17.02;95.37;102355.41;5020996;28;19921;-44
2022/09/20 09:05:43;;;;;;;;;;;;;;;16.92;90.01;102354.72;5019473;28;19971;-42
2022/09/20 09:08:15;;;;;;;;;;;;;;;16.76;87.95;102350.09;5020867;28;20213;-46
2022/09/20 09:10:41;;;;;;;;;;;;;;;16.64;95.81;102352.25;5013044;28;20348;-40
2022/09/20 09:13:06;;;;;;;;;;;;;;;16.57;86.21;102353.94;5019919;28;19960;-42
2022/09/20 09:15:36;;;;;;;;;;;;;;;16.48;89.56;102357.59;5009996;28;19960;-43
2022/09/20 09:18:02;;;;;;;;;;;;;;;16.40;87.90;102353.03;5018842;28;19913;-45
2022/09/20 09:20:27;;;;;;;;;;;;;;;16.31;94.28;102345.91;5016307;28;19932;-43
2022/09/20 09:23:07;;;;;;;;;;;;;;;16.26;94.31;102354.50;5013040;28;20530;-43
2022/09/20 09:25:37;;;;;;;;;;;;;;;16.18;90.05;102357.97;5000093;28;20017;-44
2022/09/20 09:28:05;;;;;;;;;;;;;;;16.12;94.24;102361.31;5001015;28;20291;-42
2022/09/20 09:30:35;;;;;;;;;;;;;;;16.04;84.35;102353.22;5000834;28;20175;-41
2022/09/20 09:33:13;;;;;;;;;;;;;;;15.96;90.06;102354.00;5018128;28;19971;-42
2022/09/20 09:35:38;;;;;;;;;;;;;;;15.94;91.23;102355.19;5019293;28;19929;-41
2022/09/20 09:38:03;;;;;;;;;;;;;;;15.88;91.80;102356.63;5020283;28;20156;-42
2022/09/20 09:40:30;;;;;;;;;;;;;;;15.85;90.04;102365.03;5019390;28;20011;-44
2022/09/20 09:43:00;;;;;;;;;;;;;;;15.80;90.19;102359.28;5017165;28;19917;-45
2022/09/20 09:45:25;;;;;;;;;;;;;;;15.65;91.56;102365.22;5014617;28;19924;-44
2022/09/20 09:47:51;;;;;;;;;;;;;;;15.61;93.13;102374.63;5008203;28;20408;-44
2022/09/20 09:50:23;;;;;;;;;;;;;;;15.46;90.51;102360.88;5013334;28;19980;-46
2022/09/20 09:52:59;;;;;;;;;;;;;;;15.32;89.60;102374.03;5010317;28;20446;-43
2022/09/20 09:55:32;;;;;;;;;;;;;;;15.24;91.95;102370.28;5011463;28;20388;-42
2022/09/20 09:58:12;;;;;;;;;;;;;;;15.35;93.61;102368.34;4999885;28;19924;-42
2022/09/20 10:00:42;;;;;;;;;;;;;;;15.51;90.28;102370.31;5000071;28;19929;-41
2022/09/20 10:03:26;;;;;;;;;;;;;;;15.51;84.28;102373.00;4999884;28;19921;-44
2022/09/20 10:06:03;;;;;;;;;;;;;;;15.57;89.92;102367.84;5003886;28;19944;-42
2022/09/20 10:08:37;;;;;;;;;;;;;;;15.79;91.11;102369.22;5004165;28;19929;-45
2022/09/20 10:11:15;;;;;;;;;;;;;;;16.09;90.29;102374.28;5001387;28;20134;-42
2022/09/20 10:13:48;;;;;;;;;;;;;;;16.26;91.48;102373.38;5014642;28;21369;-46
2022/09/20 10:16:19;;;;;;;;;;;;;;;16.37;91.79;102359.59;4998247;28;19924;-43
2022/09/20 10:18:53;;;;;;;;;;;;;;;16.50;89.60;102367.22;5000611;28;19927;-44
2022/09/20 10:21:23;;;;;;;;;;;;;;;16.51;86.75;102365.38;5004486;28;19916;-43
2022/09/20 10:23:59;;;;;;;;;;;;;;;16.52;88.62;102364.38;5002876;28;19917;-43
2022/09/20 10:26:30;;;;;;;;;;;;;;;16.91;85.19;102366.53;5017618;28;20019;-43
2022/09/20 10:28:58;;;;;;;;;;;;;;;17.45;89.53;102358.81;5003888;28;20010;-44
2022/09/20 10:31:24;;;;;;;;;;;;;;;17.74;84.47;102367.41;5015522;28;19932;-43
2022/09/20 10:33:59;;;;;;;;;;;;;;;17.79;87.19;102367.72;5016045;28;19924;-43
2022/09/20 10:36:38;;;;;;;;;;;;;;;17.83;81.97;102363.66;4998931;28;20395;-42
2022/09/20 10:39:12;;;;;;;;;;;;;;;17.69;79.28;102363.34;4998723;28;20020;-42
2022/09/20 10:45:05;;;;;;;;;;;;;;;17.47;80.82;102367.56;4998784;28;20116;-42
2022/09/20 10:47:33;;;;;;;;;;;;;;;17.46;84.86;102373.16;4999651;28;19928;-41
2022/09/20 10:50:02;;;;;;;;;;;;;;;17.61;84.48;102371.44;4997411;28;20383;-47
2022/09/20 10:52:30;;;;;;;;;;;;;;;17.89;81.94;102371.13;4998534;28;19913;-42
2022/09/20 10:55:07;;;;;;;;;;;;;;;17.96;82.17;102366.69;5001983;28;19953;-42
2022/09/20 10:57:35;;;;;;;;;;;;;;;17.82;76.40;102373.63;5017060;28;19929;-43
2022/09/20 11:00:05;;;;;;;;;;;;;;;17.69;82.43;102378.72;5017464;28;20308;-44
2022/09/20 11:02:49;;;;;;;;;;;;;;;17.62;79.29;102373.16;5033714;28;20383;-41
2022/09/20 11:05:19;;;;;;;;;;;;;;;17.50;78.93;102375.34;5014619;28;19917;-42
2022/09/20 11:08:04;;;;;;;;;;;;;;;17.48;77.10;102381.91;5015989;28;20323;-43
2022/09/20 11:11:09;;;;;;;;;;;;;;;17.46;78.32;102378.53;5011871;28;20360;-43
2022/09/20 11:13:34;;;;;;;;;;;;;;;17.27;78.58;102379.72;4992503;28;19917;-42
2022/09/20 11:16:04;;;;;;;;;;;;;;;17.14;76.67;102381.06;4995885;28;19921;-41
2022/09/20 11:18:37;;;;;;;;;;;;;;;17.18;81.01;102380.75;5004875;28;19919;-40
2022/09/20 11:21:07;;;;;;;;;;;;;;;17.41;78.37;102379.03;5012777;28;20024;-43
2022/09/20 11:23:39;;;;;;;;;;;;;;;17.57;79.16;102385.50;5016343;28;20003;-42
2022/09/20 11:26:10;;;;;;;;;;;;;;;17.45;77.95;102385.81;5003683;28;19928;-40
2022/09/20 11:28:38;;;;;;;;;;;;;;;17.36;80.44;102389.50;5005532;28;19917;-42
2022/09/20 11:31:16;;;;;;;;;;;;;;;17.28;80.40;102395.75;4999289;28;19968;-45
2022/09/20 11:33:45;;;;;;;;;;;;;;;16.88;80.01;102391.97;5019508;28;20372;-45
2022/09/20 11:36:16;;;;;;;;;;;;;;;16.60;80.59;102396.78;5018359;28;19920;-41
2022/09/20 11:38:42;;;;;;;;;;;;;;;16.47;81.88;102405.31;5017322;28;19928;-42
2022/09/20 11:41:13;;;;;;;;;;;;;;;16.11;82.24;102396.53;5019813;28;19925;-41
2022/09/20 11:43:41;;;;;;;;;;;;;;;15.85;82.95;102402.75;5019112;28;19995;-41
2022/09/20 11:46:09;;;;;;;;;;;;;;;15.70;83.33;102402.47;5019375;28;20372;-41
2022/09/20 11:48:57;;;;;;;;;;;;;;;15.46;84.95;102403.09;5001115;28;20157;-40
2022/09/20 11:51:33;;;;;;;;;;;;;;;15.37;86.74;102398.66;5003842;28;20272;-40
2022/09/20 11:53:58;;;;;;;;;;;;;;;15.38;87.84;102403.03;4999482;28;19940;-41
2022/09/20 11:56:27;;;;;;;;;;;;;;;15.33;87.44;102411.56;5002961;28;20152;-41
2022/09/20 11:58:54;;;;;;;;;;;;;;;15.38;86.35;102400.34;5017799;28;20016;-40
2022/09/20 12:01:24;;;;;;;;;;;;;;;15.49;88.27;102397.41;5017953;28;20407;-40
2022/09/20 12:03:51;;;;;;;;;;;;;;;15.60;88.21;102399.84;5013700;28;20058;-40
2022/09/20 12:06:23;;;;;;;;;;;;;;;15.75;85.90;102401.97;5016309;28;20411;-40
2022/09/20 12:08:50;;;;;;;;;;;;;;;15.84;85.72;102404.59;5014415;28;19960;-40
2022/09/20 12:11:16;;;;;;;;;;;;;;;16.03;86.46;102391.94;5017716;28;19921;-40
2022/09/20 12:13:51;;;;;;;;;;;;;;;16.23;83.19;102398.78;5017272;28;19971;-41
2022/09/20 12:16:33;;;;;;;;;;;;;;;16.47;84.19;102399.06;5018214;28;20233;-41
2022/09/20 12:19:00;;;;;;;;;;;;;;;16.67;80.06;102394.28;5015815;28;19968;-40
2022/09/20 12:21:27;;;;;;;;;;;;;;;16.66;77.96;102397.97;5016181;28;20032;-40
2022/09/20 12:23:52;;;;;;;;;;;;;;;16.54;77.02;102395.56;5014246;28;19979;-42
2022/09/20 12:26:17;;;;;;;;;;;;;;;16.49;82.22;102397.88;5016438;28;19928;-41
2022/09/20 12:28:44;;;;;;;;;;;;;;;16.92;79.04;102395.19;5018022;28;19921;-41
2022/09/20 12:31:21;;;;;;;;;;;;;;;17.58;77.71;102389.84;5016460;28;20160;-41
2022/09/20 12:33:53;;;;;;;;;;;;;;;18.43;75.87;102392.06;5017526;28;20392;-40
2022/09/20 12:36:18;;;;;;;;;;;;;;;19.33;73.90;102382.56;5002205;28;19928;-41
2022/09/20 12:38:48;;;;;;;;;;;;;;;20.17;72.64;102382.47;4998092;28;19917;-44
2022/09/20 12:41:15;;;;;;;;;;;;;;;21.10;70.85;102382.78;4999046;28;19917;-41
2022/09/20 12:43:49;;;;;;;;;;;;;;;21.95;58.68;102389.16;4999889;28;20430;-41
2022/09/20 12:46:33;;;;;;;;;;;;;;;22.42;54.04;102388.59;4998868;28;20020;-42
2022/09/20 12:52:49;;;;;;;;;;;;;;;22.47;64.05;102392.41;4996015;28;20202;-44
2022/09/20 12:54:50;;;;;;;;;;;;;;;24.35;48.62;102383.25;5010983;28;20347;-41
2022/09/20 12:57:18;;;;;;;;;;;;;;;24.78;55.97;102384.59;5011879;28;19918;-42
2022/09/20 12:59:43;;;;;;;;;;;;;;;25.39;55.98;102376.81;4998572;28;20353;-41
2022/09/20 13:02:27;;;;;;;;;;;;;;;25.20;49.05;102379.44;4998900;28;19917;-42
2022/09/20 13:04:54;;;;;;;;;;;;;;;23.92;48.31;102374.81;4997277;28;19972;-41